sensor_id;sensor_type;location;lat;lon;timestamp;pressure;altitude;pressure_sealevel;temperature;humidity
11648;BME280;5880;52.342;9.662;2023-04-15T00:00:41;100253.53;;;13.39;45.32
11648;BME280;5880;52.342;9.662;2023-04-15T00:03:07;100267.88;;;13.46;45.43
11648;BME280;5880;52.342;9.662;2023-04-15T00:05:33;100255.75;;;13.42;45.52
11648;BME280;5880;52.342;9.662;2023-04-15T00:08:00;100255.75;;;13.42;45.46
11648;BME280;5880;52.342;9.662;2023-04-15T00:10:26;100264.28;;;13.46;45.54
11648;BME280;5880;52.342;9.662;2023-04-15T00:12:52;100271.69;;;13.45;45.58
11648;BME280;5880;52.342;9.662;2023-04-15T00:15:18;100271.69;;;13.45;45.56
11648;BME280;5880;52.342;9.662;2023-04-15T00:17:44;100270.06;;;13.44;45.58
11648;BME280;5880;52.342;9.662;2023-04-15T00:20:10;100264.81;;;13.43;45.58
11648;BME280;5880;52.342;9.662;2023-04-15T00:22:36;100254.63;;;13.38;45.39
11648;BME280;5880;52.342;9.662;2023-04-15T00:25:02;100259.56;;;13.41;45.68
11648;BME280;5880;52.342;9.662;2023-04-15T00:27:28;100251.03;;;13.38;45.73
11648;BME280;5880;52.342;9.662;2023-04-15T00:29:54;100259.84;;;13.40;45.74
11648;BME280;5880;52.342;9.662;2023-04-15T00:32:19;100253.78;;;13.38;45.73
11648;BME280;5880;52.342;9.662;2023-04-15T00:34:45;100254.03;;;13.36;45.70
11648;BME280;5880;52.342;9.662;2023-04-15T00:37:11;100247.72;;;13.36;45.54
11648;BME280;5880;52.342;9.662;2023-04-15T00:39:37;100248.84;;;13.35;45.61
11648;BME280;5880;52.342;9.662;2023-04-15T00:42:06;100243.34;;;13.35;45.59
11648;BME280;5880;52.342;9.662;2023-04-15T00:44:32;100239.19;;;13.32;45.62
11648;BME280;5880;52.342;9.662;2023-04-15T00:47:00;100243.03;;;13.31;45.68
11648;BME280;5880;52.342;9.662;2023-04-15T00:49:27;100239.69;;;13.29;45.71
11648;BME280;5880;52.342;9.662;2023-04-15T00:51:53;100237.25;;;13.27;45.76
11648;BME280;5880;52.342;9.662;2023-04-15T00:54:19;100236.63;;;13.25;45.82
11648;BME280;5880;52.342;9.662;2023-04-15T00:56:45;100235.78;;;13.25;45.76
11648;BME280;5880;52.342;9.662;2023-04-15T00:59:12;100234.38;;;13.22;45.76
11648;BME280;5880;52.342;9.662;2023-04-15T01:01:39;100230.81;;;13.22;45.96
11648;BME280;5880;52.342;9.662;2023-04-15T01:04:05;100233.00;;;13.20;45.98
11648;BME280;5880;52.342;9.662;2023-04-15T01:06:31;100225.59;;;13.20;45.88
11648;BME280;5880;52.342;9.662;2023-04-15T01:08:58;100226.94;;;13.18;45.95
11648;BME280;5880;52.342;9.662;2023-04-15T01:11:25;100227.78;;;13.18;45.90
11648;BME280;5880;52.342;9.662;2023-04-15T01:13:51;100240.41;;;13.19;45.83
11648;BME280;5880;52.342;9.662;2023-04-15T01:16:18;100229.38;;;13.14;45.95
11648;BME280;5880;52.342;9.662;2023-04-15T01:18:44;100239.06;;;13.22;45.92
11648;BME280;5880;52.342;9.662;2023-04-15T01:21:10;100220.88;;;13.16;45.91
11648;BME280;5880;52.342;9.662;2023-04-15T01:23:38;100232.75;;;13.21;46.17
11648;BME280;5880;52.342;9.662;2023-04-15T01:26:05;100226.09;;;13.17;46.16
11648;BME280;5880;52.342;9.662;2023-04-15T01:28:32;100230.53;;;13.18;46.08
11648;BME280;5880;52.342;9.662;2023-04-15T01:31:08;100228.84;;;13.17;46.00
11648;BME280;5880;52.342;9.662;2023-04-15T01:33:34;100220.31;;;13.14;46.00
11648;BME280;5880;52.342;9.662;2023-04-15T01:35:59;100221.16;;;13.14;46.02
11648;BME280;5880;52.342;9.662;2023-04-15T01:38:26;100226.63;;;13.14;46.23
11648;BME280;5880;52.342;9.662;2023-04-15T01:40:52;100223.06;;;13.14;46.09
11648;BME280;5880;52.342;9.662;2023-04-15T01:43:18;100226.06;;;13.12;46.07
11648;BME280;5880;52.342;9.662;2023-04-15T01:45:44;100221.69;;;13.11;46.15
11648;BME280;5880;52.342;9.662;2023-04-15T01:48:10;100214.50;;;13.10;46.31
11648;BME280;5880;52.342;9.662;2023-04-15T01:50:36;100220.81;;;13.10;46.24
11648;BME280;5880;52.342;9.662;2023-04-15T01:53:03;100213.94;;;13.08;46.22
11648;BME280;5880;52.342;9.662;2023-04-15T01:55:28;100218.34;;;13.09;46.24
11648;BME280;5880;52.342;9.662;2023-04-15T01:57:54;100223.00;;;13.08;46.24
11648;BME280;5880;52.342;9.662;2023-04-15T02:00:20;100222.19;;;13.08;46.44
11648;BME280;5880;52.342;9.662;2023-04-15T02:02:47;100222.44;;;13.06;46.46
11648;BME280;5880;52.342;9.662;2023-04-15T02:05:13;100225.19;;;13.06;46.22
11648;BME280;5880;52.342;9.662;2023-04-15T02:07:39;100217.75;;;13.02;46.62
11648;BME280;5880;52.342;9.662;2023-04-15T02:10:05;100221.59;;;13.06;46.68
11648;BME280;5880;52.342;9.662;2023-04-15T02:12:30;100219.13;;;13.04;46.57
11648;BME280;5880;52.342;9.662;2023-04-15T02:14:56;100219.97;;;13.05;46.87
11648;BME280;5880;52.342;9.662;2023-04-15T02:17:21;100211.16;;;13.03;46.56
11648;BME280;5880;52.342;9.662;2023-04-15T02:19:47;100206.50;;;13.03;46.85
11648;BME280;5880;52.342;9.662;2023-04-15T02:22:13;100210.91;;;13.04;46.82
11648;BME280;5880;52.342;9.662;2023-04-15T02:24:43;100211.41;;;13.01;46.44
11648;BME280;5880;52.342;9.662;2023-04-15T02:27:14;100203.75;;;13.03;46.91
11648;BME280;5880;52.342;9.662;2023-04-15T02:29:42;100206.75;;;13.02;46.78
11648;BME280;5880;52.342;9.662;2023-04-15T02:32:07;100205.09;;;13.01;46.96
11648;BME280;5880;52.342;9.662;2023-04-15T02:34:33;100192.16;;;12.96;46.85
11648;BME280;5880;52.342;9.662;2023-04-15T02:36:59;100196.03;;;13.00;46.80
11648;BME280;5880;52.342;9.662;2023-04-15T02:39:24;100197.69;;;13.01;47.02
11648;BME280;5880;52.342;9.662;2023-04-15T02:41:50;100204.84;;;13.02;47.08
11648;BME280;5880;52.342;9.662;2023-04-15T02:44:17;100206.75;;;13.02;47.11
11648;BME280;5880;52.342;9.662;2023-04-15T02:46:46;100212.25;;;13.02;47.02
11648;BME280;5880;52.342;9.662;2023-04-15T02:49:17;100197.63;;;12.96;47.04
11648;BME280;5880;52.342;9.662;2023-04-15T02:51:43;100205.91;;;13.01;47.17
11648;BME280;5880;52.342;9.662;2023-04-15T02:54:13;100217.16;;;13.00;47.07
11648;BME280;5880;52.342;9.662;2023-04-15T02:56:39;100217.16;;;13.00;47.13
11648;BME280;5880;52.342;9.662;2023-04-15T02:59:04;100216.88;;;13.01;47.07
11648;BME280;5880;52.342;9.662;2023-04-15T03:01:30;100206.19;;;13.00;47.34
11648;BME280;5880;52.342;9.662;2023-04-15T03:03:56;100216.06;;;13.01;47.24
11648;BME280;5880;52.342;9.662;2023-04-15T03:06:21;100217.75;;;13.02;47.32
11648;BME280;5880;52.342;9.662;2023-04-15T03:08:49;100224.06;;;13.02;47.22
11648;BME280;5880;52.342;9.662;2023-04-15T03:11:15;100226.78;;;13.02;47.35
11648;BME280;5880;52.342;9.662;2023-04-15T03:13:41;100217.97;;;13.00;47.26
11648;BME280;5880;52.342;9.662;2023-04-15T03:16:08;100227.03;;;13.01;47.35
11648;BME280;5880;52.342;9.662;2023-04-15T03:18:34;100219.06;;;12.99;47.28
11648;BME280;5880;52.342;9.662;2023-04-15T03:21:00;100222.06;;;12.98;47.55
11648;BME280;5880;52.342;9.662;2023-04-15T03:23:25;100220.97;;;12.99;47.44
11648;BME280;5880;52.342;9.662;2023-04-15T03:25:51;100219.34;;;12.98;47.64
11648;BME280;5880;52.342;9.662;2023-04-15T03:28:20;100220.16;;;12.98;47.53
11648;BME280;5880;52.342;9.662;2023-04-15T03:30:45;100225.63;;;12.98;47.57
11648;BME280;5880;52.342;9.662;2023-04-15T03:33:11;100222.66;;;13.00;47.73
11648;BME280;5880;52.342;9.662;2023-04-15T03:35:37;100220.16;;;12.98;47.53
11648;BME280;5880;52.342;9.662;2023-04-15T03:38:02;100211.34;;;12.96;47.70
11648;BME280;5880;52.342;9.662;2023-04-15T03:40:28;100206.97;;;12.95;47.70
11648;BME280;5880;52.342;9.662;2023-04-15T03:42:54;100212.94;;;12.92;47.71
11648;BME280;5880;52.342;9.662;2023-04-15T03:45:20;100215.97;;;12.91;47.72
11648;BME280;5880;52.342;9.662;2023-04-15T03:47:45;100212.66;;;12.88;47.79
11648;BME280;5880;52.342;9.662;2023-04-15T03:50:11;100218.13;;;12.88;47.70
11648;BME280;5880;52.342;9.662;2023-04-15T03:52:37;100218.38;;;12.87;47.73
11648;BME280;5880;52.342;9.662;2023-04-15T03:55:03;100220.56;;;12.85;48.10
11648;BME280;5880;52.342;9.662;2023-04-15T03:57:29;100215.06;;;12.85;47.80
11648;BME280;5880;52.342;9.662;2023-04-15T03:59:55;100216.16;;;12.84;47.92
11648;BME280;5880;52.342;9.662;2023-04-15T04:02:21;100213.66;;;12.82;47.95
11648;BME280;5880;52.342;9.662;2023-04-15T04:04:47;100228.19;;;12.83;48.04
11648;BME280;5880;52.342;9.662;2023-04-15T04:07:17;100220.25;;;12.81;47.94
11648;BME280;5880;52.342;9.662;2023-04-15T04:09:42;100218.84;;;12.79;48.00
11648;BME280;5880;52.342;9.662;2023-04-15T04:12:08;100218.28;;;12.77;48.11
11648;BME280;5880;52.342;9.662;2023-04-15T04:14:34;100212.22;;;12.75;48.14
11648;BME280;5880;52.342;9.662;2023-04-15T04:17:00;100223.44;;;12.73;48.16
11648;BME280;5880;52.342;9.662;2023-04-15T04:19:25;100228.91;;;12.73;48.38
11648;BME280;5880;52.342;9.662;2023-04-15T04:21:51;100217.38;;;12.71;48.17
11648;BME280;5880;52.342;9.662;2023-04-15T04:24:17;100219.28;;;12.71;48.45
11648;BME280;5880;52.342;9.662;2023-04-15T04:26:43;100222.03;;;12.71;48.60
11648;BME280;5880;52.342;9.662;2023-04-15T04:29:08;100225.59;;;12.71;48.33
11648;BME280;5880;52.342;9.662;2023-04-15T04:31:34;100233.81;;;12.71;48.28
11648;BME280;5880;52.342;9.662;2023-04-15T04:34:00;100223.91;;;12.65;48.42
11648;BME280;5880;52.342;9.662;2023-04-15T04:36:25;100232.19;;;12.70;48.58
11648;BME280;5880;52.342;9.662;2023-04-15T04:38:51;100227.22;;;12.67;48.66
11648;BME280;5880;52.342;9.662;2023-04-15T04:41:17;100219.25;;;12.65;48.54
11648;BME280;5880;52.342;9.662;2023-04-15T04:43:43;100231.03;;;12.66;48.57
11648;BME280;5880;52.342;9.662;2023-04-15T04:46:08;100226.88;;;12.63;49.00
11648;BME280;5880;52.342;9.662;2023-04-15T04:48:34;100225.25;;;12.62;48.67
11648;BME280;5880;52.342;9.662;2023-04-15T04:51:01;100229.91;;;12.62;48.75
11648;BME280;5880;52.342;9.662;2023-04-15T04:53:27;100219.44;;;12.59;48.60
11648;BME280;5880;52.342;9.662;2023-04-15T04:55:52;100224.91;;;12.59;48.74
11648;BME280;5880;52.342;9.662;2023-04-15T04:58:18;100220.53;;;12.58;48.72
11648;BME280;5880;52.342;9.662;2023-04-15T05:00:44;100225.19;;;12.57;48.92
11648;BME280;5880;52.342;9.662;2023-04-15T05:03:09;100211.66;;;12.51;48.92
11648;BME280;5880;52.342;9.662;2023-04-15T05:05:35;100222.94;;;12.54;48.88
11648;BME280;5880;52.342;9.662;2023-04-15T05:08:04;100223.44;;;12.51;49.08
11648;BME280;5880;52.342;9.662;2023-04-15T05:10:30;100224.28;;;12.52;48.99
11648;BME280;5880;52.342;9.662;2023-04-15T05:12:56;100228.13;;;12.51;49.09
11648;BME280;5880;52.342;9.662;2023-04-15T05:15:22;100225.63;;;12.49;49.10
11648;BME280;5880;52.342;9.662;2023-04-15T05:17:47;100221.72;;;12.45;49.36
11648;BME280;5880;52.342;9.662;2023-04-15T05:20:13;100229.19;;;12.50;49.40
11648;BME280;5880;52.342;9.662;2023-04-15T05:22:39;100232.19;;;12.48;49.29
11648;BME280;5880;52.342;9.662;2023-04-15T05:25:05;100226.97;;;12.46;49.36
11648;BME280;5880;52.342;9.662;2023-04-15T05:27:31;100232.94;;;12.43;49.24
11648;BME280;5880;52.342;9.662;2023-04-15T05:29:57;100225.75;;;12.37;49.63
11648;BME280;5880;52.342;9.662;2023-04-15T05:32:22;100229.63;;;12.41;49.70
11648;BME280;5880;52.342;9.662;2023-04-15T05:34:48;100237.03;;;12.41;49.72
11648;BME280;5880;52.342;9.662;2023-04-15T05:37:14;100235.13;;;12.41;49.92
11648;BME280;5880;52.342;9.662;2023-04-15T05:39:40;100229.06;;;12.39;49.79
11648;BME280;5880;52.342;9.662;2023-04-15T05:42:05;100229.81;;;12.35;50.01
11648;BME280;5880;52.342;9.662;2023-04-15T05:44:31;100227.66;;;12.37;49.94
11648;BME280;5880;52.342;9.662;2023-04-15T05:46:57;100226.56;;;12.38;49.92
11648;BME280;5880;52.342;9.662;2023-04-15T05:49:23;100237.78;;;12.36;50.00
11648;BME280;5880;52.342;9.662;2023-04-15T05:51:48;100223.75;;;12.33;50.29
11648;BME280;5880;52.342;9.662;2023-04-15T05:54:14;100228.22;;;12.39;49.88
11648;BME280;5880;52.342;9.662;2023-04-15T05:56:40;100229.06;;;12.39;50.15
11648;BME280;5880;52.342;9.662;2023-04-15T05:59:06;100224.63;;;12.38;50.08
11648;BME280;5880;52.342;9.662;2023-04-15T06:01:32;100230.63;;;12.35;50.37
11648;BME280;5880;52.342;9.662;2023-04-15T06:03:58;100227.06;;;12.35;50.19
11648;BME280;5880;52.342;9.662;2023-04-15T06:06:24;100223.19;;;12.31;50.13
11648;BME280;5880;52.342;9.662;2023-04-15T06:08:51;100229.00;;;12.34;50.47
11648;BME280;5880;52.342;9.662;2023-04-15T06:11:19;100225.41;;;12.34;50.37
11648;BME280;5880;52.342;9.662;2023-04-15T06:13:46;100227.31;;;12.33;50.57
11648;BME280;5880;52.342;9.662;2023-04-15T06:16:12;100223.19;;;12.31;50.62
11648;BME280;5880;52.342;9.662;2023-04-15T06:18:37;100225.91;;;12.31;50.56
11648;BME280;5880;52.342;9.662;2023-04-15T06:21:03;100216.06;;;12.30;50.63
11648;BME280;5880;52.342;9.662;2023-04-15T06:23:29;100230.34;;;12.32;50.59
11648;BME280;5880;52.342;9.662;2023-04-15T06:25:55;100228.41;;;12.32;50.68
11648;BME280;5880;52.342;9.662;2023-04-15T06:28:21;100223.19;;;12.31;50.95
11648;BME280;5880;52.342;9.662;2023-04-15T06:30:46;100225.34;;;12.29;50.82
11648;BME280;5880;52.342;9.662;2023-04-15T06:33:12;100228.06;;;12.29;51.00
11648;BME280;5880;52.342;9.662;2023-04-15T06:35:38;100224.75;;;12.27;50.73
11648;BME280;5880;52.342;9.662;2023-04-15T06:38:04;100226.69;;;12.26;51.15
11648;BME280;5880;52.342;9.662;2023-04-15T06:40:30;100233.84;;;12.27;51.01
11648;BME280;5880;52.342;9.662;2023-04-15T06:42:56;100224.28;;;12.30;51.19
11648;BME280;5880;52.342;9.662;2023-04-15T06:45:21;100229.41;;;12.26;51.03
11648;BME280;5880;52.342;9.662;2023-04-15T06:47:47;100227.25;;;12.28;51.29
11648;BME280;5880;52.342;9.662;2023-04-15T06:50:12;100216.06;;;12.30;51.31
11648;BME280;5880;52.342;9.662;2023-04-15T06:52:39;100233.56;;;12.29;51.08
11648;BME280;5880;52.342;9.662;2023-04-15T06:55:05;100222.28;;;12.25;51.20
11648;BME280;5880;52.342;9.662;2023-04-15T06:57:31;100226.44;;;12.28;51.05
11648;BME280;5880;52.342;9.662;2023-04-15T06:59:57;100231.09;;;12.27;51.20
11648;BME280;5880;52.342;9.662;2023-04-15T07:02:22;100230.25;;;12.27;51.49
11648;BME280;5880;52.342;9.662;2023-04-15T07:04:48;100234.41;;;12.29;51.45
11648;BME280;5880;52.342;9.662;2023-04-15T07:07:14;100229.16;;;12.28;51.37
11648;BME280;5880;52.342;9.662;2023-04-15T07:09:40;100241.53;;;12.30;51.31
11648;BME280;5880;52.342;9.662;2023-04-15T07:12:06;100231.41;;;12.31;51.61
11648;BME280;5880;52.342;9.662;2023-04-15T07:14:31;100238.78;;;12.30;51.41
11648;BME280;5880;52.342;9.662;2023-04-15T07:16:57;100215.72;;;12.26;51.64
11648;BME280;5880;52.342;9.662;2023-04-15T07:19:22;100224.00;;;12.31;51.76
11648;BME280;5880;52.342;9.662;2023-04-15T07:21:48;100223.19;;;12.31;51.66
11648;BME280;5880;52.342;9.662;2023-04-15T07:24:14;100238.56;;;12.32;51.56
11648;BME280;5880;52.342;9.662;2023-04-15T07:26:43;100240.19;;;12.33;51.50
11648;BME280;5880;52.342;9.662;2023-04-15T07:29:09;100244.84;;;12.32;51.66
11648;BME280;5880;52.342;9.662;2023-04-15T07:31:35;100251.75;;;12.35;51.90
11648;BME280;5880;52.342;9.662;2023-04-15T07:34:02;100259.44;;;12.38;51.74
11648;BME280;5880;52.342;9.662;2023-04-15T07:36:28;100259.44;;;12.38;51.85
11648;BME280;5880;52.342;9.662;2023-04-15T07:38:54;100258.97;;;12.41;51.70
11648;BME280;5880;52.342;9.662;2023-04-15T07:41:20;100257.03;;;12.41;51.83
11648;BME280;5880;52.342;9.662;2023-04-15T07:43:46;100263.59;;;12.40;52.01
11648;BME280;5880;52.342;9.662;2023-04-15T07:46:13;100258.69;;;12.42;51.98
11648;BME280;5880;52.342;9.662;2023-04-15T07:48:39;100256.78;;;12.43;52.06
11648;BME280;5880;52.342;9.662;2023-04-15T07:51:05;100260.03;;;12.40;52.17
11648;BME280;5880;52.342;9.662;2023-04-15T07:53:30;100262.53;;;12.41;52.21
11648;BME280;5880;52.342;9.662;2023-04-15T07:55:57;100262.53;;;12.41;52.29
11648;BME280;5880;52.342;9.662;2023-04-15T07:58:23;100269.41;;;12.44;52.38
11648;BME280;5880;52.342;9.662;2023-04-15T08:00:49;100273.56;;;12.46;52.09
11648;BME280;5880;52.342;9.662;2023-04-15T08:03:15;100275.19;;;12.48;52.44
11648;BME280;5880;52.342;9.662;2023-04-15T08:05:41;100272.22;;;12.49;52.14
11648;BME280;5880;52.342;9.662;2023-04-15T08:08:07;100273.03;;;12.50;52.35
11648;BME280;5880;52.342;9.662;2023-04-15T08:10:33;100271.63;;;12.47;52.47
11648;BME280;5880;52.342;9.662;2023-04-15T08:12:58;100283.75;;;12.51;52.36
11648;BME280;5880;52.342;9.662;2023-04-15T08:15:25;100287.91;;;12.54;52.56
11648;BME280;5880;52.342;9.662;2023-04-15T08:17:51;100290.41;;;12.55;52.55
11648;BME280;5880;52.342;9.662;2023-04-15T08:20:16;100292.03;;;12.56;52.49
11648;BME280;5880;52.342;9.662;2023-04-15T08:22:42;100293.13;;;12.55;52.63
11648;BME280;5880;52.342;9.662;2023-04-15T08:25:08;100291.81;;;12.58;52.62
11648;BME280;5880;52.342;9.662;2023-04-15T08:27:34;100291.53;;;12.59;52.46
11648;BME280;5880;52.342;9.662;2023-04-15T08:30:00;100292.38;;;12.60;52.88
11648;BME280;5880;52.342;9.662;2023-04-15T08:32:26;100293.78;;;12.62;52.67
11648;BME280;5880;52.342;9.662;2023-04-15T08:34:52;100289.94;;;12.63;52.70
11648;BME280;5880;52.342;9.662;2023-04-15T08:37:17;100284.47;;;12.63;52.54
11648;BME280;5880;52.342;9.662;2023-04-15T08:39:43;100286.97;;;12.65;52.86
11648;BME280;5880;52.342;9.662;2023-04-15T08:42:16;100290.28;;;12.67;52.85
11648;BME280;5880;52.342;9.662;2023-04-15T08:44:45;100295.75;;;12.67;52.56
11648;BME280;5880;52.342;9.662;2023-04-15T08:47:13;100295.94;;;12.60;52.70
11648;BME280;5880;52.342;9.662;2023-04-15T08:49:41;100296.00;;;12.65;52.77
11648;BME280;5880;52.342;9.662;2023-04-15T08:52:08;100299.56;;;12.66;52.70
11648;BME280;5880;52.342;9.662;2023-04-15T08:54:34;100287.78;;;12.65;53.07
11648;BME280;5880;52.342;9.662;2023-04-15T08:57:01;100293.03;;;12.67;53.10
11648;BME280;5880;52.342;9.662;2023-04-15T08:59:29;100302.88;;;12.68;53.07
11648;BME280;5880;52.342;9.662;2023-04-15T09:01:56;100298.50;;;12.67;52.92
11648;BME280;5880;52.342;9.662;2023-04-15T09:04:23;100297.41;;;12.68;53.19
11648;BME280;5880;52.342;9.662;2023-04-15T09:06:48;100302.06;;;12.67;53.26
11648;BME280;5880;52.342;9.662;2023-04-15T09:09:14;100303.72;;;12.68;52.94
11648;BME280;5880;52.342;9.662;2023-04-15T09:11:40;100302.88;;;12.68;53.14
11648;BME280;5880;52.342;9.662;2023-04-15T09:14:07;100300.16;;;12.68;53.16
11648;BME280;5880;52.342;9.662;2023-04-15T09:17:00;100299.91;;;12.70;53.03
11648;BME280;5880;52.342;9.662;2023-04-15T09:19:26;100298.22;;;12.68;53.34
11648;BME280;5880;52.342;9.662;2023-04-15T09:21:58;100302.38;;;12.71;53.26
11648;BME280;5880;52.342;9.662;2023-04-15T09:24:24;100308.97;;;12.70;53.56
11648;BME280;5880;52.342;9.662;2023-04-15T09:26:53;100310.13;;;12.74;53.74
11648;BME280;5880;52.342;9.662;2023-04-15T09:29:19;100302.47;;;12.76;53.77
11648;BME280;5880;52.342;9.662;2023-04-15T09:31:48;100313.16;;;12.78;53.62
11648;BME280;5880;52.342;9.662;2023-04-15T09:34:14;100313.44;;;12.76;53.43
11648;BME280;5880;52.342;9.662;2023-04-15T09:36:56;100330.53;;;12.83;53.50
11648;BME280;5880;52.342;9.662;2023-04-15T09:39:22;100336.25;;;12.82;53.64
11648;BME280;5880;52.342;9.662;2023-04-15T09:42:05;100342.06;;;12.85;53.44
11648;BME280;5880;52.342;9.662;2023-04-15T09:44:31;100339.34;;;12.85;53.53
11648;BME280;5880;52.342;9.662;2023-04-15T09:46:57;100344.81;;;12.85;53.78
11648;BME280;5880;52.342;9.662;2023-04-15T09:49:22;100345.38;;;12.87;53.60
11648;BME280;5880;52.342;9.662;2023-04-15T09:51:48;100340.47;;;12.89;53.60
11648;BME280;5880;52.342;9.662;2023-04-15T09:54:19;100343.78;;;12.92;53.61
11648;BME280;5880;52.342;9.662;2023-04-15T09:56:47;100344.38;;;12.94;53.76
11648;BME280;5880;52.342;9.662;2023-04-15T09:59:13;100342.44;;;12.94;53.64
11648;BME280;5880;52.342;9.662;2023-04-15T10:01:41;100346.34;;;12.98;53.86
11648;BME280;5880;52.342;9.662;2023-04-15T10:04:08;100349.91;;;12.99;53.90
11648;BME280;5880;52.342;9.662;2023-04-15T10:06:35;100355.97;;;13.01;53.93
11648;BME280;5880;52.342;9.662;2023-04-15T10:09:01;100361.47;;;13.01;54.04
11648;BME280;5880;52.342;9.662;2023-04-15T10:11:28;100354.63;;;13.03;53.89
11648;BME280;5880;52.342;9.662;2023-04-15T10:13:55;100352.72;;;13.04;54.06
11648;BME280;5880;52.342;9.662;2023-04-15T10:16:26;100353.28;;;13.06;54.04
11648;BME280;5880;52.342;9.662;2023-04-15T10:18:56;100348.66;;;13.06;53.85
11648;BME280;5880;52.342;9.662;2023-04-15T10:21:26;100347.56;;;13.07;54.03
11648;BME280;5880;52.342;9.662;2023-04-15T10:23:52;100361.03;;;13.09;54.02
11648;BME280;5880;52.342;9.662;2023-04-15T10:26:18;100353.63;;;13.09;54.08
11648;BME280;5880;52.342;9.662;2023-04-15T10:28:44;100360.50;;;13.12;53.95
11648;BME280;5880;52.342;9.662;2023-04-15T10:31:12;100363.00;;;13.14;54.25
11648;BME280;5880;52.342;9.662;2023-04-15T10:33:40;100352.28;;;13.12;54.25
11648;BME280;5880;52.342;9.662;2023-04-15T10:36:07;100354.50;;;13.15;54.26
11648;BME280;5880;52.342;9.662;2023-04-15T10:38:41;100358.41;;;13.19;54.41
11648;BME280;5880;52.342;9.662;2023-04-15T10:41:24;100359.22;;;13.20;54.16
11648;BME280;5880;52.342;9.662;2023-04-15T10:44:03;100359.50;;;13.18;54.21
11648;BME280;5880;52.342;9.662;2023-04-15T10:46:41;100362.78;;;13.20;54.49
11648;BME280;5880;52.342;9.662;2023-04-15T10:49:14;100359.22;;;13.20;54.45
11648;BME280;5880;52.342;9.662;2023-04-15T10:51:46;100356.75;;;13.18;54.63
11648;BME280;5880;52.342;9.662;2023-04-15T10:57:05;100358.44;;;13.24;54.46
11648;BME280;5880;52.342;9.662;2023-04-15T10:59:36;100364.59;;;13.32;54.56
11648;BME280;5880;52.342;9.662;2023-04-15T11:02:04;100361.38;;;13.35;54.75
11648;BME280;5880;52.342;9.662;2023-04-15T11:04:58;100365.22;;;13.39;54.53
11648;BME280;5880;52.342;9.662;2023-04-15T11:12:39;100364.22;;;13.45;54.67
11648;BME280;5880;52.342;9.662;2023-04-15T11:18:14;100366.75;;;13.51;54.64
11648;BME280;5880;52.342;9.662;2023-04-15T11:20:44;100370.91;;;13.54;54.82
11648;BME280;5880;52.342;9.662;2023-04-15T11:23:10;100375.06;;;13.57;54.86
11648;BME280;5880;52.342;9.662;2023-04-15T11:25:36;100379.53;;;13.63;54.99
11648;BME280;5880;52.342;9.662;2023-04-15T11:28:03;100378.19;;;13.65;54.97
11648;BME280;5880;52.342;9.662;2023-04-15T11:30:33;100382.88;;;13.70;55.16
11648;BME280;5880;52.342;9.662;2023-04-15T11:33:06;100381.25;;;13.74;55.17
11648;BME280;5880;52.342;9.662;2023-04-15T11:35:34;100374.94;;;13.73;55.00
11648;BME280;5880;52.342;9.662;2023-04-15T11:38:05;100381.06;;;13.81;55.23
11648;BME280;5880;52.342;9.662;2023-04-15T11:40:33;100382.44;;;13.83;55.14
11648;BME280;5880;52.342;9.662;2023-04-15T11:43:19;100391.03;;;13.87;55.18
11648;BME280;5880;52.342;9.662;2023-04-15T11:45:55;100393.00;;;13.91;55.17
11648;BME280;5880;52.342;9.662;2023-04-15T11:48:25;100396.31;;;13.93;55.26
11648;BME280;5880;52.342;9.662;2023-04-15T11:51:03;100397.94;;;13.94;55.19
11648;BME280;5880;52.342;9.662;2023-04-15T11:53:45;100400.16;;;13.98;55.15
11648;BME280;5880;52.342;9.662;2023-04-15T11:56:18;100408.97;;;14.00;55.30
11648;BME280;5880;52.342;9.662;2023-04-15T11:58:44;100410.66;;;14.01;55.27
11648;BME280;5880;52.342;9.662;2023-04-15T12:01:11;100403.00;;;14.03;55.45
11648;BME280;5880;52.342;9.662;2023-04-15T12:03:40;100410.47;;;14.07;55.54
11648;BME280;5880;52.342;9.662;2023-04-15T12:06:21;100401.09;;;14.08;55.52
11648;BME280;5880;52.342;9.662;2023-04-15T12:11:56;100426.19;;;14.17;55.43
11648;BME280;5880;52.342;9.662;2023-04-15T12:14:32;100420.44;;;14.19;55.39
11648;BME280;5880;52.342;9.662;2023-04-15T12:17:05;100424.03;;;14.19;55.39
11648;BME280;5880;52.342;9.662;2023-04-15T12:19:37;100427.06;;;14.23;55.50
11648;BME280;5880;52.342;9.662;2023-04-15T12:22:10;100435.06;;;14.24;55.60
11648;BME280;5880;52.342;9.662;2023-04-15T12:24:37;100436.69;;;14.25;55.60
11648;BME280;5880;52.342;9.662;2023-04-15T12:27:09;100435.34;;;14.28;55.57
11648;BME280;5880;52.342;9.662;2023-04-15T12:29:38;100441.69;;;14.28;55.47
11648;BME280;5880;52.342;9.662;2023-04-15T12:32:10;100447.75;;;14.30;55.66
11648;BME280;5880;52.342;9.662;2023-04-15T12:34:39;100444.75;;;14.32;55.71
11648;BME280;5880;52.342;9.662;2023-04-15T12:37:09;100449.16;;;14.33;55.70
11648;BME280;5880;52.342;9.662;2023-04-15T12:39:38;100448.88;;;14.34;55.76
11648;BME280;5880;52.342;9.662;2023-04-15T12:42:05;100453.31;;;14.35;55.69
11648;BME280;5880;52.342;9.662;2023-04-15T12:44:32;100459.09;;;14.39;55.68
11648;BME280;5880;52.342;9.662;2023-04-15T12:46:58;100462.41;;;14.41;55.78
11648;BME280;5880;52.342;9.662;2023-04-15T12:49:25;100457.44;;;14.38;55.70
11648;BME280;5880;52.342;9.662;2023-04-15T12:51:53;100474.00;;;14.43;55.72
11648;BME280;5880;52.342;9.662;2023-04-15T12:54:20;100475.09;;;14.42;55.76
11648;BME280;5880;52.342;9.662;2023-04-15T12:56:47;100470.13;;;14.44;55.73
11648;BME280;5880;52.342;9.662;2023-04-15T12:59:15;100474.00;;;14.43;55.84
11648;BME280;5880;52.342;9.662;2023-04-15T13:01:43;100481.41;;;14.43;55.58
11648;BME280;5880;52.342;9.662;2023-04-15T13:04:09;100479.50;;;14.43;55.85
11648;BME280;5880;52.342;9.662;2023-04-15T13:06:35;100474.00;;;14.43;55.96
11648;BME280;5880;52.342;9.662;2023-04-15T13:09:02;100486.63;;;14.44;56.05
11648;BME280;5880;52.342;9.662;2023-04-15T13:11:29;100483.63;;;14.46;56.07
11648;BME280;5880;52.342;9.662;2023-04-15T13:13:56;100487.78;;;14.48;56.13